Time;durP1;ratioP1;P1;durP2;ratioP2;P2;SDS_P1;SDS_P2;PMS_P1;PMS_P2;Temp;Humidity;BMP_temperature;BMP_pressure;BME280_temperature;BME280_humidity;BME280_pressure;Samples;Min_cycle;Max_cycle;Signal;HPM_P1;HPM_P2
2022/11/16 00:00:20;;;;;;;6.75;4.18;;;;;;;16.32;47.73;92348.72;5095139;28;20043;-86
2022/11/16 00:02:47;;;;;;;4.82;3.75;;;;;;;16.33;47.92;92355.63;5092733;28;20036;-86
2022/11/16 00:05:12;;;;;;;4.88;3.72;;;;;;;16.32;47.97;92354.16;5074989;28;20043;-86
2022/11/16 00:07:38;;;;;;;6.07;4.18;;;;;;;16.33;47.80;92343.97;5091694;28;20063;-86
2022/11/16 00:10:04;;;;;;;6.22;4.50;;;;;;;16.31;48.00;92328.16;5088637;28;20055;-86
2022/11/16 00:12:29;;;;;;;5.18;3.72;;;;;;;16.32;47.69;92337.06;5090605;28;20161;-86
2022/11/16 00:14:54;;;;;;;5.50;3.72;;;;;;;16.31;47.89;92330.13;5072018;28;20028;-86
2022/11/16 00:17:20;;;;;;;5.07;3.50;;;;;;;16.30;47.92;92334.13;5054088;28;20129;-86
2022/11/16 00:19:46;;;;;;;4.70;3.70;;;;;;;16.30;47.87;92329.41;5072460;28;20481;-85
2022/11/16 00:22:11;;;;;;;5.30;3.60;;;;;;;16.29;47.96;92322.47;5088812;28;20040;-86
2022/11/16 00:24:36;;;;;;;4.72;3.20;;;;;;;16.32;47.91;92324.16;5071809;28;20036;-86
2022/11/16 00:27:02;;;;;;;5.07;3.50;;;;;;;16.31;48.07;92313.78;5089116;28;20036;-86
2022/11/16 00:29:27;;;;;;;5.18;3.63;;;;;;;16.31;47.97;92313.78;5057795;28;20033;-86
2022/11/16 00:31:53;;;;;;;4.63;3.33;;;;;;;16.30;47.87;92313.03;5090907;28;20028;-86
2022/11/16 00:34:18;;;;;;;4.30;3.30;;;;;;;16.30;47.89;92296.69;5091818;28;20043;-85
2022/11/16 00:36:44;;;;;;;5.00;3.60;;;;;;;16.30;47.68;92301.41;5060783;28;20044;-86
2022/11/16 00:39:11;;;;;;;4.50;3.50;;;;;;;16.30;47.75;92304.13;5057498;28;20036;-86
2022/11/16 00:41:36;;;;;;;4.20;3.70;;;;;;;16.31;48.13;92300.13;5078751;28;20112;-86
2022/11/16 00:44:02;;;;;;;3.53;3.22;;;;;;;16.30;47.71;92302.13;5071471;28;20037;-86
2022/11/16 00:46:27;;;;;;;4.00;3.03;;;;;;;16.29;48.08;92287.03;5100871;27;20028;-86
2022/11/16 00:48:52;;;;;;;6.75;3.28;;;;;;;16.31;47.84;92289.22;5091228;28;20028;-86
2022/11/16 00:51:18;;;;;;;5.25;3.33;;;;;;;16.30;47.83;92280.31;5081593;28;20043;-86
2022/11/16 00:53:43;;;;;;;4.13;3.40;;;;;;;16.28;47.89;92288.28;5088272;28;20040;-86
2022/11/16 00:56:09;;;;;;;3.75;2.72;;;;;;;16.29;47.44;92286.28;5075935;28;20544;-86
2022/11/16 00:58:34;;;;;;;3.15;2.55;;;;;;;16.30;47.90;92288.50;5053862;28;20040;-86
2022/11/16 01:01:05;;;;;;;3.95;3.05;;;;;;;16.30;47.90;92288.50;5087078;28;20028;-86
2022/11/16 01:03:30;;;;;;;4.22;3.10;;;;;;;16.27;47.69;92269.72;5083270;28;20055;-85
2022/11/16 01:06:01;;;;;;;4.15;3.03;;;;;;;16.28;47.63;92277.38;5054728;28;20380;-86
2022/11/16 01:08:26;;;;;;;3.47;2.75;;;;;;;16.29;47.81;92272.66;5075010;27;20036;-86
2022/11/16 01:10:51;;;;;;;3.67;2.85;;;;;;;16.29;47.62;92269.94;5068967;28;20039;-86
2022/11/16 01:13:17;;;;;;;3.72;2.55;;;;;;;16.29;47.69;92264.47;5070278;28;20039;-86
2022/11/16 01:15:46;;;;;;;3.53;2.70;;;;;;;16.29;47.62;92269.94;5071252;28;20032;-86
2022/11/16 01:18:11;;;;;;;4.45;2.90;;;;;;;16.28;47.80;92273.91;5086678;28;20518;-86
2022/11/16 01:20:39;;;;;;;3.75;2.70;;;;;;;16.28;47.43;92266.47;5070120;28;20043;-85
2022/11/16 01:23:04;;;;;;;3.08;2.70;;;;;;;16.26;47.83;92263.53;5074007;28;20033;-85
2022/11/16 01:25:29;;;;;;;3.85;2.40;;;;;;;16.29;47.50;92259.03;5091189;28;20035;-85
2022/11/16 01:27:55;;;;;;;4.57;2.83;;;;;;;16.29;47.82;92256.28;5091041;28;20216;-86
2022/11/16 01:30:20;;;;;;;4.57;2.60;;;;;;;16.28;47.90;92252.84;5086635;28;20058;-86
2022/11/16 01:32:46;;;;;;;3.40;2.70;;;;;;;16.30;47.42;92247.59;5069777;28;20343;-86
2022/11/16 01:35:14;;;;;;;2.92;2.20;;;;;;;16.27;47.57;92245.91;5087085;28;20043;-86
2022/11/16 01:37:40;;;;;;;3.65;2.50;;;;;;;16.28;47.70;92249.38;5072074;28;20032;-86
2022/11/16 01:40:06;;;;;;;3.10;2.58;;;;;;;16.27;47.65;92242.44;5088852;28;20028;-86
2022/11/16 01:42:32;;;;;;;3.35;2.40;;;;;;;16.27;48.00;92245.91;5073286;28;20044;-86
2022/11/16 01:45:05;;;;;;;2.75;2.15;;;;;;;16.27;47.64;92254.09;5089012;28;20062;-85
2022/11/16 01:47:30;;;;;;;3.50;2.58;;;;;;;16.25;47.32;92239.50;5083939;28;20063;-86
2022/11/16 01:50:02;;;;;;;3.53;2.72;;;;;;;16.25;47.55;92237.50;5087244;28;20482;-86
2022/11/16 01:52:30;;;;;;;3.28;2.33;;;;;;;16.28;47.80;92238.47;5083421;28;20158;-86
2022/11/16 01:54:55;;;;;;;2.97;2.10;;;;;;;16.26;47.85;92233.53;5090767;28;20027;-86
2022/11/16 01:57:23;;;;;;;3.42;2.22;;;;;;;16.26;47.51;92227.34;5081310;28;20093;-86
2022/11/16 01:59:50;;;;;;;3.35;2.50;;;;;;;16.26;47.88;92232.78;5070233;28;20060;-86
2022/11/16 02:02:15;;;;;;;3.67;2.53;;;;;;;16.25;47.79;92229.34;5055129;28;20048;-86
2022/11/16 02:04:42;;;;;;;2.55;2.00;;;;;;;16.26;47.90;92230.06;5053031;28;20390;-86
2022/11/16 02:07:26;;;;;;;2.38;2.00;;;;;;;16.25;47.81;92226.59;5071437;28;20039;-86
2022/11/16 02:10:24;;;;;;;3.08;2.25;;;;;;;16.26;47.74;92219.91;5105339;28;20127;-86
2022/11/16 02:13:02;;;;;;;2.53;2.15;;;;;;;16.27;47.64;92212.44;5084891;28;20039;-86
2022/11/16 02:15:58;;;;;;;2.35;1.90;;;;;;;16.26;47.83;92206.25;5086279;28;20036;-85
2022/11/16 02:18:23;;;;;;;3.22;2.35;;;;;;;16.25;48.09;92204.06;5072270;28;20486;-86
2022/11/16 02:21:04;;;;;;;3.42;2.20;;;;;;;16.24;47.61;92197.16;5095494;28;20092;-85
2022/11/16 02:23:44;;;;;;;2.83;2.30;;;;;;;16.26;47.65;92189.91;5090969;28;20050;-85
2022/11/16 02:26:27;;;;;;;3.45;2.13;;;;;;;16.26;47.77;92175.53;5106138;28;20046;-86
2022/11/16 02:29:22;;;;;;;2.38;1.90;;;;;;;16.24;47.72;92178.78;5106923;28;20058;-86
2022/11/16 02:32:18;;;;;;;2.30;1.83;;;;;;;16.23;47.97;92177.34;5088348;28;20132;-85
2022/11/16 02:34:46;;;;;;;2.92;1.95;;;;;;;16.25;47.87;92171.34;5088594;28;20073;-86
2022/11/16 02:37:13;;;;;;;2.10;1.60;;;;;;;16.25;47.84;92168.63;5086106;28;20036;-86
2022/11/16 02:39:39;;;;;;;2.55;1.90;;;;;;;16.25;47.81;92165.88;5069490;28;20044;-86
2022/11/16 02:42:05;;;;;;;2.30;1.65;;;;;;;16.24;47.58;92159.00;5093531;28;20042;-86
2022/11/16 02:44:35;;;;;;;2.58;2.17;;;;;;;16.23;47.80;92162.97;5088760;28;20039;-85
2022/11/16 02:47:04;;;;;;;2.63;1.87;;;;;;;16.24;47.58;92156.97;5079080;28;20035;-86
2022/11/16 02:49:32;;;;;;;2.33;1.50;;;;;;;16.23;47.68;92152.81;5073114;28;20039;-86
2022/11/16 02:51:58;;;;;;;2.45;1.70;;;;;;;16.23;47.61;92152.06;5085819;28;20040;-86
2022/11/16 02:54:23;;;;;;;2.13;1.50;;;;;;;16.24;47.79;92142.63;5069143;28;20042;-86
2022/11/16 02:57:01;;;;;;;3.05;1.80;;;;;;;16.23;47.77;92149.34;5075800;28;20093;-86
2022/11/16 02:59:32;;;;;;;2.88;1.73;;;;;;;16.21;48.01;92147.16;5107067;28;20063;-86
2022/11/16 03:02:25;;;;;;;2.45;1.77;;;;;;;16.23;47.82;92138.44;5078390;28;20059;-86
2022/11/16 03:04:58;;;;;;;2.88;1.92;;;;;;;16.23;47.95;92138.44;5106491;28;20088;-86
2022/11/16 03:07:26;;;;;;;2.55;1.58;;;;;;;16.22;47.69;92129.53;5091799;28;20036;-86
2022/11/16 03:09:51;;;;;;;2.35;1.85;;;;;;;16.23;48.10;92127.53;5069281;28;20075;-86
2022/11/16 03:12:19;;;;;;;1.80;1.38;;;;;;;16.25;47.96;92133.16;5058750;28;20040;-86
2022/11/16 03:14:56;;;;;;;2.90;1.55;;;;;;;16.23;47.79;92132.97;5069045;28;20086;-86
2022/11/16 03:17:21;;;;;;;1.70;1.60;;;;;;;16.22;47.73;92131.50;5079909;28;20047;-86
2022/11/16 03:19:50;;;;;;;2.15;1.50;;;;;;;16.23;47.59;92128.25;5087704;28;20505;-86
2022/11/16 03:22:38;;;;;;;1.95;1.70;;;;;;;16.22;47.57;92128.78;5090992;28;20044;-86
2022/11/16 03:25:04;;;;;;;2.08;1.50;;;;;;;16.20;47.75;92126.59;5095835;28;20039;-86
2022/11/16 03:27:46;;;;;;;1.67;1.50;;;;;;;16.22;47.55;92136.97;5076166;28;20035;-86
2022/11/16 03:30:21;;;;;;;2.28;1.52;;;;;;;16.23;47.67;92133.72;5109542;28;20075;-86
2022/11/16 03:32:53;;;;;;;2.05;1.40;;;;;;;16.24;47.52;92129.72;5089636;28;20060;-86
2022/11/16 03:35:31;;;;;;;1.95;1.40;;;;;;;16.23;47.62;92127.53;5089468;28;20043;-86
2022/11/16 03:37:57;;;;;;;2.50;1.50;;;;;;;16.22;47.75;92124.06;5075344;28;20066;-85
2022/11/16 03:40:23;;;;;;;2.20;1.65;;;;;;;16.21;47.91;92124.59;5075418;28;20572;-86
2022/11/16 03:42:48;;;;;;;1.80;1.40;;;;;;;16.21;47.71;92125.34;5075626;28;20452;-86
2022/11/16 03:45:14;;;;;;;1.80;1.45;;;;;;;16.19;47.88;92133.31;5089062;28;20036;-86
2022/11/16 03:47:40;;;;;;;1.27;1.10;;;;;;;16.22;47.66;92121.34;5067880;28;20116;-86
2022/11/16 03:50:06;;;;;;;2.00;1.55;;;;;;;16.20;47.55;92109.50;5109272;28;20454;-86
2022/11/16 03:52:31;;;;;;;1.70;1.35;;;;;;;16.19;47.58;92108.75;5075202;28;20047;-86
2022/11/16 03:54:57;;;;;;;1.83;1.40;;;;;;;16.22;47.50;92104.25;5109490;28;20032;-86
2022/11/16 03:57:22;;;;;;;1.63;1.30;;;;;;;16.20;47.83;92091.16;5101004;28;20044;-86
2022/11/16 03:59:47;;;;;;;1.75;1.40;;;;;;;16.20;47.71;92085.69;5089402;28;20511;-86
2022/11/16 04:02:13;;;;;;;1.95;1.50;;;;;;;16.21;47.74;92084.44;5079075;28;20043;-86
2022/11/16 04:29:17;;;;;;;1.42;1.23;;;;;;;16.17;47.72;92056.03;5088672;28;20043;-86
2022/11/16 04:39:54;;;;;;;1.83;1.08;;;;;;;16.24;47.52;92066.28;5094734;28;20452;-86
2022/11/16 04:42:21;;;;;;;2.15;1.50;;;;;;;16.19;47.62;92067.13;5107972;28;20032;-86
2022/11/16 04:47:32;;;;;;;4.70;1.30;;;;;;;16.21;47.66;92076.25;5097652;28;20167;-86
2022/11/16 04:49:57;;;;;;;2.67;1.30;;;;;;;16.18;47.80;92071.84;5097073;28;20035;-87
2022/11/16 04:52:22;;;;;;;10.77;1.63;;;;;;;16.21;47.51;92070.06;5110384;27;20494;-86
2022/11/16 04:54:48;;;;;;;1.45;1.30;;;;;;;16.25;48.13;92076.63;5114733;28;20043;-86
2022/11/16 04:57:13;;;;;;;1.52;1.02;;;;;;;16.28;47.52;92077.56;5095368;28;20040;-87
2022/11/16 04:59:39;;;;;;;1.50;0.90;;;;;;;16.25;47.58;92071.19;5109494;28;20048;-86
2022/11/16 05:02:07;;;;;;;4.47;1.58;;;;;;;16.21;47.53;92059.91;5074524;28;20063;-86
2022/11/16 05:04:33;;;;;;;1.13;0.98;;;;;;;16.24;47.35;92069.00;5105999;28;20185;-87
2022/11/16 05:06:58;;;;;;;1.80;1.10;;;;;;;16.22;47.43;92049.72;5082103;28;20486;-86
2022/11/16 05:09:24;;;;;;;1.83;1.05;;;;;;;16.25;47.91;92049.38;5096462;27;20035;-86
2022/11/16 05:11:49;;;;;;;1.02;0.93;;;;;;;16.21;47.49;92057.16;5110319;28;20123;-86
2022/11/16 05:14:15;;;;;;;2.80;0.88;;;;;;;16.19;47.75;92053.50;5070236;28;20518;-86
2022/11/16 05:16:40;;;;;;;1.35;0.90;;;;;;;16.18;47.66;92052.03;5102342;28;20134;-85
2022/11/16 05:21:50;;;;;;;1.05;1.02;;;;;;;16.20;47.60;92046.78;5100629;28;20101;-87
2022/11/16 05:24:33;;;;;;;2.65;1.17;;;;;;;16.22;47.28;92041.53;5087742;28;20048;-86
2022/11/16 05:27:03;;;;;;;2.13;1.02;;;;;;;16.18;47.63;92041.13;5096943;28;20039;-86
2022/11/16 05:29:29;;;;;;;3.00;0.87;;;;;;;16.21;47.63;92042.81;5070497;28;20032;-86
2022/11/16 05:31:55;;;;;;;2.63;1.60;;;;;;;16.20;47.62;92033.88;5097264;28;20216;-87
2022/11/16 05:34:20;;;;;;;9.30;2.47;;;;;;;16.26;47.84;92022.84;5079856;27;20123;-86
2022/11/16 05:36:46;;;;;;;19.23;9.93;;;;;;;16.29;47.45;92025.25;5101365;27;20055;-86
2022/11/16 05:39:13;;;;;;;31.40;14.55;;;;;;;16.30;47.63;92026.72;5106560;27;20451;-89
2022/11/16 05:41:38;;;;;;;52.17;30.75;;;;;;;16.36;47.67;92023.84;5088636;27;20038;-86
2022/11/16 05:44:04;;;;;;;31.40;12.65;;;;;;;16.39;47.43;92022.81;5076032;28;20032;-86
2022/11/16 05:46:29;;;;;;;196.90;114.30;;;;;;;16.42;47.79;92024.47;5098775;28;20058;-87
2022/11/16 05:48:55;;;;;;;32.00;14.40;;;;;;;16.39;47.52;92022.81;5087905;28;20043;-89
2022/11/16 05:51:20;;;;;;;19.75;8.52;;;;;;;16.35;46.92;92027.84;5082449;28;20402;-89
2022/11/16 05:53:48;;;;;;;54.42;20.58;;;;;;;16.35;47.22;92030.56;5107566;27;20032;-88
2022/11/16 05:56:14;;;;;;;65.18;24.00;;;;;;;16.29;47.09;92036.16;5093371;27;20064;-89
2022/11/16 05:58:40;;;;;;;63.78;28.77;;;;;;;16.29;47.12;92043.59;5088878;27;20610;-88
2022/11/16 06:01:05;;;;;;;85.70;42.70;;;;;;;16.30;47.39;92053.25;5092937;28;20061;-87
2022/11/16 06:03:31;;;;;;;85.65;42.20;;;;;;;16.28;47.19;92053.03;5076417;28;20040;-87
2022/11/16 06:05:56;;;;;;;107.55;50.38;;;;;;;16.33;47.12;92046.72;5091286;28;20062;-87
2022/11/16 06:08:22;;;;;;;120.90;54.22;;;;;;;16.31;46.84;92057.44;5084515;28;20213;-87
2022/11/16 06:10:47;;;;;;;114.82;54.53;;;;;;;16.29;47.31;92057.97;5070947;28;20047;-90
2022/11/16 06:13:12;;;;;;;125.25;56.63;;;;;;;16.32;47.09;92051.44;5090390;27;20067;-87
2022/11/16 06:15:38;;;;;;;111.78;51.78;;;;;;;16.29;47.12;92065.41;5071012;28;20040;-87
2022/11/16 06:18:04;;;;;;;114.28;47.63;;;;;;;16.30;47.34;92073.06;5056958;28;20099;-88
2022/11/16 06:20:29;;;;;;;92.53;42.88;;;;;;;16.34;47.34;92070.00;5084698;28;20466;-87
2022/11/16 06:22:55;;;;;;;86.03;41.08;;;;;;;16.34;47.58;92070.75;5083952;27;20381;-88
2022/11/16 06:25:20;;;;;;;86.32;39.50;;;;;;;16.34;47.38;92073.47;5086391;28;20040;-87
2022/11/16 06:27:46;;;;;;;103.80;44.85;;;;;;;16.35;47.25;92085.13;5079480;28;20453;-88
2022/11/16 06:30:11;;;;;;;100.20;43.63;;;;;;;16.33;47.16;92088.38;5080085;28;20039;-89
2022/11/16 06:32:37;;;;;;;74.40;32.85;;;;;;;16.35;48.19;92085.84;5078053;28;20158;-87
2022/11/16 06:35:03;;;;;;;91.75;39.65;;;;;;;16.34;47.53;92078.19;5088180;28;20043;-89
2022/11/16 06:37:28;;;;;;;86.82;38.00;;;;;;;16.35;47.83;92077.66;5101139;28;20398;-90
2022/11/16 06:39:53;;;;;;;89.78;40.45;;;;;;;16.34;47.28;92076.19;5073592;27;20028;-87
2022/11/16 06:42:19;;;;;;;94.05;38.30;;;;;;;16.35;47.60;92087.84;5071101;28;20208;-88
2022/11/16 06:44:44;;;;;;;93.97;38.08;;;;;;;16.36;46.98;92092.03;5084500;28;20402;-89
2022/11/16 06:47:10;;;;;;;93.32;38.33;;;;;;;16.31;47.29;92088.16;5066273;28;20050;-87
2022/11/16 06:49:35;;;;;;;107.55;39.10;;;;;;;16.34;47.49;92081.66;5102732;28;20398;-87
2022/11/16 06:52:01;;;;;;;83.28;35.95;;;;;;;16.33;47.25;92084.91;5087869;28;20032;-88
2022/11/16 06:54:26;;;;;;;75.15;32.78;;;;;;;16.35;47.91;92085.84;5080645;28;20251;-86
2022/11/16 06:56:51;;;;;;;90.47;38.25;;;;;;;16.33;47.63;92090.38;5062698;28;20047;-89
2022/11/16 06:59:17;;;;;;;74.82;31.80;;;;;;;16.37;48.50;92090.78;5079255;28;20398;-87
2022/11/16 07:01:43;;;;;;;70.43;34.08;;;;;;;16.36;47.85;92100.94;5083856;28;20036;-87
2022/11/16 07:04:14;;;;;;;91.60;40.03;;;;;;;16.35;48.12;92107.66;5093055;28;20233;-88
2022/11/16 07:06:41;;;;;;;;;;;;;;;16.40;48.13;92109.53;5092112;28;20031;-86
2022/11/16 07:09:07;;;;;;;82.00;36.85;;;;;;;16.48;48.03;92112.34;5087799;28;19924;-89
2022/11/16 07:11:35;;;;;;;76.90;33.97;;;;;;;16.50;47.99;92106.34;5059482;28;20048;-85
2022/11/16 07:14:01;;;;;;;69.85;33.22;;;;;;;16.55;48.15;92100.78;5085847;28;20125;-87
2022/11/16 07:16:26;;;;;;;70.13;30.38;;;;;;;16.58;47.70;92102.47;5081122;28;20036;-86
2022/11/16 07:18:55;;;;;;;56.63;26.90;;;;;;;16.61;47.69;92112.31;5073297;28;20043;-85
2022/11/16 07:21:21;;;;;;;62.22;30.92;;;;;;;16.63;48.10;92117.25;5071364;28;20040;-87
2022/11/16 07:23:47;;;;;;;53.75;26.55;;;;;;;16.66;47.90;92116.94;5074290;28;20039;-86
2022/11/16 07:26:12;;;;;;;47.63;25.33;;;;;;;16.69;47.94;92123.31;5075195;28;20430;-89
2022/11/16 07:28:38;;;;;;;64.10;29.48;;;;;;;16.69;47.64;92134.22;5083913;28;20065;-86
2022/11/16 07:31:05;;;;;;;49.35;24.25;;;;;;;16.68;47.24;92138.94;5086253;28;20036;-87
2022/11/16 07:33:31;;;;;;;74.57;43.42;;;;;;;16.64;47.81;92143.28;5079122;28;20038;-88
2022/11/16 07:36:04;;;;;;;63.65;31.63;;;;;;;16.62;47.10;92127.41;5078093;28;20254;-87
2022/11/16 07:38:29;;;;;;;66.60;28.90;;;;;;;16.60;46.99;92148.31;5073625;28;20039;-90
2022/11/16 07:41:03;;;;;;;68.15;27.35;;;;;;;16.61;46.82;92155.22;5076175;28;20085;-87
2022/11/16 07:43:31;;;;;;;67.05;28.52;;;;;;;16.57;47.24;92150.09;5067619;28;20040;-88
2022/11/16 07:46:07;;;;;;;54.65;25.00;;;;;;;16.57;47.58;92163.00;5069033;28;20126;-87
2022/11/16 07:48:32;;;;;;;67.38;28.23;;;;;;;16.58;47.30;92162.47;5094272;28;20043;-86
2022/11/16 07:51:02;;;;;;;57.08;25.92;;;;;;;16.54;47.25;92161.31;5070457;28;20040;-86
2022/11/16 07:53:28;;;;;;;64.75;26.52;;;;;;;16.55;47.92;92160.06;5067593;28;20044;-88
2022/11/16 07:55:53;;;;;;;65.30;26.80;;;;;;;16.52;47.81;92148.22;5061714;28;20044;-87
2022/11/16 07:58:19;;;;;;;73.25;27.95;;;;;;;16.53;47.98;92165.31;5093083;28;20032;-92
2022/11/16 08:00:45;;;;;;;71.70;28.30;;;;;;;16.50;47.69;92156.19;5063886;28;20040;-91
2022/11/16 08:03:10;;;;;;;79.15;38.67;;;;;;;16.49;47.92;92164.91;5060136;28;20028;-89
2022/11/16 08:05:35;;;;;;;72.93;34.85;;;;;;;16.50;48.04;92160.91;5056678;28;20039;-88
2022/11/16 08:08:01;;;;;;;80.82;39.75;;;;;;;16.50;48.25;92161.66;5056923;27;20028;-88
2022/11/16 08:10:26;;;;;;;75.93;35.22;;;;;;;16.48;47.64;92164.16;5073321;28;20032;-87
2022/11/16 08:12:53;;;;;;;77.00;38.75;;;;;;;16.49;47.63;92168.38;5074982;28;20406;-91
2022/11/16 08:15:19;;;;;;;81.10;35.55;;;;;;;16.46;47.50;92175.59;5076047;28;20040;-89
2022/11/16 08:17:45;;;;;;;64.00;33.70;;;;;;;16.46;47.67;92175.59;5074272;27;20517;-88
2022/11/16 08:20:11;;;;;;;78.75;38.22;;;;;;;16.48;48.30;92177.81;5076764;28;20036;-89
2022/11/16 08:22:36;;;;;;;71.22;38.58;;;;;;;16.47;47.97;92179.06;5078410;28;20119;-88
2022/11/16 08:25:02;;;;;;;77.30;37.78;;;;;;;16.47;47.77;92184.53;5079061;28;20048;-88
2022/11/16 08:27:28;;;;;;;78.20;39.85;;;;;;;16.45;47.71;92185.03;5092313;28;20047;-91
2022/11/16 08:29:54;;;;;;;72.82;37.95;;;;;;;16.44;47.70;92191.78;5112702;28;20031;-89
2022/11/16 08:32:21;;;;;;;78.40;44.20;;;;;;;16.43;47.97;92200.50;5072940;28;20028;-89
2022/11/16 08:34:46;;;;;;;79.60;43.00;;;;;;;16.42;47.38;92196.31;5083469;28;20487;-89
2022/11/16 08:37:12;;;;;;;90.03;48.30;;;;;;;16.44;47.34;92207.41;5088958;28;20089;-86
2022/11/16 08:39:37;;;;;;;83.72;44.70;;;;;;;16.43;47.47;92200.50;5054499;28;20032;-86
2022/11/16 08:42:03;;;;;;;93.35;40.70;;;;;;;16.44;48.17;92210.16;5056145;28;20039;-89
2022/11/16 08:44:28;;;;;;;76.63;42.10;;;;;;;16.42;47.83;92210.66;5058280;28;20036;-89
2022/11/16 08:46:54;;;;;;;95.22;39.42;;;;;;;16.40;47.61;92207.72;5061854;28;20073;-87
2022/11/16 08:49:19;;;;;;;74.70;41.97;;;;;;;16.40;47.51;92210.47;5074578;28;20055;-88
2022/11/16 08:51:45;;;;;;;90.43;39.85;;;;;;;16.43;48.51;92208.69;5060563;28;20028;-86
2022/11/16 08:54:10;;;;;;;98.95;47.03;;;;;;;16.43;47.73;92216.88;5087231;28;20412;-87
2022/11/16 08:56:35;;;;;;;104.95;51.13;;;;;;;16.43;47.52;92198.50;5077794;28;20031;-89
2022/11/16 08:59:02;;;;;;;103.88;47.65;;;;;;;16.41;47.91;92201.03;5075884;28;20040;-88
2022/11/16 09:01:28;;;;;;;127.75;54.13;;;;;;;16.43;47.67;92212.13;5077051;28;20032;-88
2022/11/16 09:03:53;;;;;;;147.27;57.55;;;;;;;16.44;47.82;92202.69;5070991;28;20034;-90
2022/11/16 09:06:19;;;;;;;128.73;54.28;;;;;;;16.41;47.50;92211.94;5072054;27;20367;-88
2022/11/16 09:08:45;;;;;;;126.53;52.90;;;;;;;16.42;47.90;92213.41;5071741;28;20024;-88
2022/11/16 09:11:14;;;;;;;117.80;49.03;;;;;;;16.43;47.55;92195.03;5074630;28;20043;-89
2022/11/16 09:13:40;;;;;;;111.63;46.42;;;;;;;16.43;48.03;92198.50;5081793;28;20040;-89
2022/11/16 09:16:06;;;;;;;86.45;40.67;;;;;;;16.45;48.40;92197.97;5079846;28;20115;-90
2022/11/16 09:18:32;;;;;;;91.22;41.63;;;;;;;16.49;47.87;92211.28;5095024;28;20070;-90
2022/11/16 09:20:58;;;;;;;91.57;38.97;;;;;;;16.43;48.38;92220.31;5075873;28;20043;-91
2022/11/16 09:23:23;;;;;;;108.95;43.97;;;;;;;16.45;48.42;92217.06;5096361;28;20036;-92
2022/11/16 09:25:48;;;;;;;96.90;44.15;;;;;;;16.44;47.70;92212.88;5095478;28;20066;-93
2022/11/16 09:28:15;;;;;;;88.60;40.80;;;;;;;16.44;48.36;92213.59;5077798;28;20487;-91
2022/11/16 09:30:42;;;;;;;116.78;49.22;;;;;;;16.44;48.10;92208.16;5078512;28;20035;-89
2022/11/16 09:33:07;;;;;;;137.00;55.28;;;;;;;16.42;47.98;92199.75;5078043;28;20092;-90
2022/11/16 09:35:33;;;;;;;116.25;56.88;;;;;;;16.42;48.40;92202.50;5061757;28;20036;-87
2022/11/16 09:37:58;;;;;;;129.10;64.28;;;;;;;16.45;48.11;92201.41;5059736;28;20028;-88
2022/11/16 09:40:34;;;;;;;142.90;68.47;;;;;;;16.43;47.96;92189.59;5064559;28;20068;-90
2022/11/16 09:43:29;;;;;;;154.48;73.90;;;;;;;16.44;47.96;92191.06;5075263;28;20562;-90
2022/11/16 09:46:17;;;;;;;165.55;76.25;;;;;;;16.44;48.36;92193.78;5103489;28;20428;-87
2022/11/16 09:48:42;;;;;;;173.77;86.32;;;;;;;16.47;48.20;92181.78;5077522;28;20047;-86
2022/11/16 09:51:10;;;;;;;168.38;88.03;;;;;;;16.44;48.39;92191.78;5061851;28;20036;-88
2022/11/16 09:53:43;;;;;;;194.82;99.13;;;;;;;16.46;47.92;92180.31;5078181;28;20054;-89
2022/11/16 09:56:16;;;;;;;210.40;112.55;;;;;;;16.44;48.04;92186.34;5085498;28;20055;-87
2022/11/16 09:58:59;;;;;;;229.35;116.65;;;;;;;16.43;47.86;92176.69;5078844;28;20048;-87
2022/11/16 10:01:31;;;;;;;182.45;93.63;;;;;;;16.48;48.82;92179.78;5072232;28;20046;-87
2022/11/16 10:04:11;;;;;;;221.40;113.78;;;;;;;16.51;47.85;92178.75;5063336;28;20040;-90
2022/11/16 10:06:56;;;;;;;249.38;127.35;;;;;;;16.47;48.38;92181.78;5077837;28;20034;-90
2022/11/16 10:09:21;;;;;;;272.15;137.35;;;;;;;16.48;48.21;92164.16;5086374;28;20520;-89
2022/11/16 10:12:18;;;;;;;230.82;116.32;;;;;;;16.49;48.78;92176.53;5064249;28;20040;-92
2022/11/16 10:15:08;;;;;;;212.25;105.25;;;;;;;16.52;48.76;92169.31;5090741;28;20086;-91
2022/11/16 10:17:50;;;;;;;253.03;126.13;;;;;;;16.52;48.86;92166.56;5092159;28;20024;-92
2022/11/16 10:20:32;;;;;;;286.40;145.85;;;;;;;16.49;48.29;92160.19;5074897;28;20040;-92
2022/11/16 10:23:21;;;;;;;284.58;145.13;;;;;;;16.46;48.22;92161.22;5100691;28;20036;-92
2022/11/16 10:25:57;;;;;;;241.88;126.25;;;;;;;16.47;48.25;92151.78;5093956;28;20055;-91
2022/11/16 10:28:44;;;;;;;221.32;118.32;;;;;;;16.48;48.36;92153.25;5065926;28;20453;-91
2022/11/16 10:31:21;;;;;;;232.50;121.15;;;;;;;16.51;48.40;92154.19;5093002;28;20354;-91
2022/11/16 10:33:47;;;;;;;229.48;123.55;;;;;;;16.50;48.16;92145.28;5087947;28;20028;-93
2022/11/16 10:36:13;;;;;;;188.10;103.80;;;;;;;16.52;48.66;92142.75;5078472;28;20039;-89
2022/11/16 10:38:39;;;;;;;203.32;107.78;;;;;;;16.54;48.57;92134.06;5090672;28;20038;-87
2022/11/16 10:41:31;;;;;;;232.60;116.72;;;;;;;16.51;48.30;92138.56;5081235;28;20036;-86
2022/11/16 10:43:57;;;;;;;200.07;104.20;;;;;;;16.54;47.97;92136.78;5078674;28;20500;-87
2022/11/16 10:46:29;;;;;;;182.18;87.28;;;;;;;16.46;47.27;92131.97;5083323;28;20058;-89
2022/11/16 10:49:02;;;;;;;163.27;84.55;;;;;;;16.44;47.18;92134.50;5091011;28;20031;-88
2022/11/16 10:51:27;;;;;;;204.07;94.68;;;;;;;16.45;47.69;92129.78;5107344;28;20035;-90
2022/11/16 10:53:54;;;;;;;164.52;87.53;;;;;;;16.50;47.63;92125.44;5088970;28;20055;-89
2022/11/16 10:56:31;;;;;;;166.05;86.00;;;;;;;16.46;48.14;92125.78;5064235;28;20605;-87
2022/11/16 10:59:01;;;;;;;177.57;96.00;;;;;;;16.45;48.00;92122.31;5092027;28;20050;-88
2022/11/16 11:01:30;;;;;;;232.57;97.90;;;;;;;16.49;48.44;92123.97;5090347;28;20040;-89
2022/11/16 11:04:37;;;;;;;199.50;97.93;;;;;;;16.48;48.47;92133.44;5112176;28;20059;-89
2022/11/16 11:07:27;;;;;;;209.02;98.82;;;;;;;16.48;48.34;92127.97;5020487;28;20049;-90
2022/11/16 11:09:53;;;;;;;178.27;94.40;;;;;;;16.47;48.41;92121.78;5030155;23;20050;-91
2022/11/16 11:12:37;;;;;;;181.52;96.07;;;;;;;16.51;48.19;92122.19;5005291;28;20049;-92
2022/11/16 11:17:29;;;;;;;175.65;88.93;;;;;;;16.45;48.35;92116.84;5058997;23;20037;-91
2022/11/16 11:19:59;;;;;;;172.35;96.03;;;;;;;16.44;48.42;92112.69;5020396;28;20413;-89
2022/11/16 11:22:26;;;;;;;460.25;360.30;;;;;;;16.46;48.62;92121.06;4987860;28;20034;-90
2022/11/16 11:24:51;;;;;;;193.23;118.57;;;;;;;16.51;48.92;92108.56;5013816;28;20037;-91
2022/11/16 11:27:22;;;;;;;168.65;99.28;;;;;;;16.52;48.51;92109.28;4985673;28;20198;-90
2022/11/16 11:29:52;;;;;;;119.40;68.22;;;;;;;16.52;48.51;92114.75;4970915;28;20042;-90
2022/11/16 11:32:21;;;;;;;113.87;65.20;;;;;;;16.55;48.21;92111.69;5019087;28;20060;-90
2022/11/16 11:34:49;;;;;;;116.30;66.57;;;;;;;16.56;48.42;92106.97;5069106;23;20323;-90
2022/11/16 11:37:31;;;;;;;117.05;64.28;;;;;;;16.56;48.02;92109.69;5061375;28;20064;-91
2022/11/16 11:40:19;;;;;;;105.95;60.45;;;;;;;16.55;48.54;92108.22;5040240;28;20100;-91
2022/11/16 11:43:21;;;;;;;91.78;53.55;;;;;;;16.54;48.46;92107.50;5058048;28;20041;-91
2022/11/16 11:46:03;;;;;;;107.13;58.60;;;;;;;16.55;48.24;92097.31;5636663;23;20141;-90
2022/11/16 11:48:46;;;;;;;76.97;44.25;;;;;;;16.57;48.49;92100.25;5055744;23;20036;-91
2022/11/16 11:51:34;;;;;;;98.45;55.53;;;;;;;16.52;48.68;92101.84;5086269;28;20451;-92
2022/11/16 11:54:01;;;;;;;93.60;54.50;;;;;;;16.54;48.28;92087.66;5087113;28;20020;-92
2022/11/16 11:56:29;;;;;;;91.35;54.10;;;;;;;16.55;47.89;92089.13;5069974;28;20032;-92
2022/11/16 11:58:55;;;;;;;89.07;49.63;;;;;;;16.53;48.68;92083.47;5056029;28;20092;-93
2022/11/16 12:01:37;;;;;;;92.07;54.67;;;;;;;16.51;48.88;92084.00;5080897;28;20047;-92
2022/11/16 12:04:25;;;;;;;110.93;62.97;;;;;;;16.52;48.04;92079.28;5079333;28;20413;-89
2022/11/16 12:07:00;;;;;;;105.80;59.65;;;;;;;16.53;48.00;92078.75;5066816;28;20040;-87
2022/11/16 12:10:02;;;;;;;126.68;64.55;;;;;;;16.49;48.39;92072.88;5072949;28;20079;-88
2022/11/16 12:12:46;;;;;;;120.25;62.50;;;;;;;16.51;48.39;92078.56;5075550;28;20045;-86